sensor_id;sensor_type;location;lat;lon;timestamp;temperature;humidity
60353;DHT22;46196;52.970;6.954;2023-09-07T00:01:30;19.30;99.90
60353;DHT22;46196;52.970;6.954;2023-09-07T00:03:57;19.20;99.90
60353;DHT22;46196;52.970;6.954;2023-09-07T00:06:23;18.70;99.90
60353;DHT22;46196;52.970;6.954;2023-09-07T00:08:49;19.30;99.90
60353;DHT22;46196;52.970;6.954;2023-09-07T00:16:07;20.20;99.90
60353;DHT22;46196;52.970;6.954;2023-09-07T00:18:34;18.70;99.90
60353;DHT22;46196;52.970;6.954;2023-09-07T00:21:01;19.10;99.90
60353;DHT22;46196;52.970;6.954;2023-09-07T00:23:27;19.10;99.90
60353;DHT22;46196;52.970;6.954;2023-09-07T00:28:18;19.30;99.90
60353;DHT22;46196;52.970;6.954;2023-09-07T00:30:44;19.00;99.90
60353;DHT22;46196;52.970;6.954;2023-09-07T00:38:02;18.80;99.90
60353;DHT22;46196;52.970;6.954;2023-09-07T00:40:30;18.90;99.90
60353;DHT22;46196;52.970;6.954;2023-09-07T00:45:22;19.40;99.90
60353;DHT22;46196;52.970;6.954;2023-09-07T00:47:48;18.20;99.90
60353;DHT22;46196;52.970;6.954;2023-09-07T00:50:14;19.00;99.90
60353;DHT22;46196;52.970;6.954;2023-09-07T00:52:46;18.90;99.90
60353;DHT22;46196;52.970;6.954;2023-09-07T00:55:13;18.90;99.90
60353;DHT22;46196;52.970;6.954;2023-09-07T00:57:38;19.40;99.90
60353;DHT22;46196;52.970;6.954;2023-09-07T01:00:05;18.80;99.90
60353;DHT22;46196;52.970;6.954;2023-09-07T01:04:59;19.20;99.90
60353;DHT22;46196;52.970;6.954;2023-09-07T01:07:32;19.20;99.90
60353;DHT22;46196;52.970;6.954;2023-09-07T01:10:00;18.80;99.90
60353;DHT22;46196;52.970;6.954;2023-09-07T01:12:27;19.60;99.90
60353;DHT22;46196;52.970;6.954;2023-09-07T01:14:53;18.80;99.90
60353;DHT22;46196;52.970;6.954;2023-09-07T01:17:20;19.30;99.90
60353;DHT22;46196;52.970;6.954;2023-09-07T01:19:50;18.70;99.90
60353;DHT22;46196;52.970;6.954;2023-09-07T01:22:18;19.30;99.90
60353;DHT22;46196;52.970;6.954;2023-09-07T01:24:45;18.70;99.90
60353;DHT22;46196;52.970;6.954;2023-09-07T01:27:12;18.70;99.90
60353;DHT22;46196;52.970;6.954;2023-09-07T01:29:39;17.10;99.90
60353;DHT22;46196;52.970;6.954;2023-09-07T01:32:06;18.60;99.90
60353;DHT22;46196;52.970;6.954;2023-09-07T01:34:32;18.20;99.90
60353;DHT22;46196;52.970;6.954;2023-09-07T01:36:58;18.50;99.90
60353;DHT22;46196;52.970;6.954;2023-09-07T01:39:24;20.00;99.90
60353;DHT22;46196;52.970;6.954;2023-09-07T01:41:49;19.20;99.90
60353;DHT22;46196;52.970;6.954;2023-09-07T01:49:07;18.40;99.90
60353;DHT22;46196;52.970;6.954;2023-09-07T01:54:01;18.40;99.90
60353;DHT22;46196;52.970;6.954;2023-09-07T01:56:26;18.40;99.90
60353;DHT22;46196;52.970;6.954;2023-09-07T01:58:52;18.30;99.90
60353;DHT22;46196;52.970;6.954;2023-09-07T02:04:02;18.90;99.90
60353;DHT22;46196;52.970;6.954;2023-09-07T02:06:28;17.00;99.90
60353;DHT22;46196;52.970;6.954;2023-09-07T02:11:20;18.10;99.90
60353;DHT22;46196;52.970;6.954;2023-09-07T02:13:47;18.00;99.90
60353;DHT22;46196;52.970;6.954;2023-09-07T02:16:16;17.90;99.90
60353;DHT22;46196;52.970;6.954;2023-09-07T02:18:45;17.50;99.90
60353;DHT22;46196;52.970;6.954;2023-09-07T02:35:57;18.80;99.90
60353;DHT22;46196;52.970;6.954;2023-09-07T02:57:56;17.60;99.90
60353;DHT22;46196;52.970;6.954;2023-09-07T03:00:23;18.10;99.90
60353;DHT22;46196;52.970;6.954;2023-09-07T03:02:49;19.00;99.90
60353;DHT22;46196;52.970;6.954;2023-09-07T03:05:16;17.50;99.90
60353;DHT22;46196;52.970;6.954;2023-09-07T03:10:08;17.40;99.90
60353;DHT22;46196;52.970;6.954;2023-09-07T03:15:00;17.00;99.90
60353;DHT22;46196;52.970;6.954;2023-09-07T03:19:55;17.80;99.90
60353;DHT22;46196;52.970;6.954;2023-09-07T03:22:22;17.70;99.90
60353;DHT22;46196;52.970;6.954;2023-09-07T03:24:50;18.20;99.90
60353;DHT22;46196;52.970;6.954;2023-09-07T03:27:16;17.00;99.90
60353;DHT22;46196;52.970;6.954;2023-09-07T03:34:34;17.70;99.90
60353;DHT22;46196;52.970;6.954;2023-09-07T03:37:00;18.10;99.90
60353;DHT22;46196;52.970;6.954;2023-09-07T03:39:26;18.60;99.90
60353;DHT22;46196;52.970;6.954;2023-09-07T03:44:18;17.50;99.90
60353;DHT22;46196;52.970;6.954;2023-09-07T03:49:10;18.50;99.90
60353;DHT22;46196;52.970;6.954;2023-09-07T03:51:35;18.70;99.90
60353;DHT22;46196;52.970;6.954;2023-09-07T03:54:01;17.40;99.90
60353;DHT22;46196;52.970;6.954;2023-09-07T03:56:27;18.50;99.90
60353;DHT22;46196;52.970;6.954;2023-09-07T04:01:19;18.20;99.90
60353;DHT22;46196;52.970;6.954;2023-09-07T04:03:45;17.60;99.90
60353;DHT22;46196;52.970;6.954;2023-09-07T04:06:10;17.00;99.90
60353;DHT22;46196;52.970;6.954;2023-09-07T04:08:37;17.50;99.90
60353;DHT22;46196;52.970;6.954;2023-09-07T04:11:04;17.70;99.90
60353;DHT22;46196;52.970;6.954;2023-09-07T04:13:29;17.70;99.90
60353;DHT22;46196;52.970;6.954;2023-09-07T04:15:55;17.70;99.90
60353;DHT22;46196;52.970;6.954;2023-09-07T04:18:21;17.20;99.90
60353;DHT22;46196;52.970;6.954;2023-09-07T04:23:13;18.00;99.90
60353;DHT22;46196;52.970;6.954;2023-09-07T04:25:38;17.20;99.90
60353;DHT22;46196;52.970;6.954;2023-09-07T04:28:08;17.10;99.90
60353;DHT22;46196;52.970;6.954;2023-09-07T04:30:43;18.30;99.90
60353;DHT22;46196;52.970;6.954;2023-09-07T04:33:08;17.40;99.90
60353;DHT22;46196;52.970;6.954;2023-09-07T04:45:18;17.30;99.90
60353;DHT22;46196;52.970;6.954;2023-09-07T04:47:44;17.80;99.90
60353;DHT22;46196;52.970;6.954;2023-09-07T04:50:10;17.00;99.90
60353;DHT22;46196;52.970;6.954;2023-09-07T04:52:36;18.50;99.90
60353;DHT22;46196;52.970;6.954;2023-09-07T04:55:02;16.90;99.90
60353;DHT22;46196;52.970;6.954;2023-09-07T04:57:29;17.70;99.90
60353;DHT22;46196;52.970;6.954;2023-09-07T04:59:55;18.00;99.90
60353;DHT22;46196;52.970;6.954;2023-09-07T05:02:21;16.90;99.90
60353;DHT22;46196;52.970;6.954;2023-09-07T05:04:46;18.10;99.90
60353;DHT22;46196;52.970;6.954;2023-09-07T05:07:12;16.90;99.90
60353;DHT22;46196;52.970;6.954;2023-09-07T05:09:38;17.30;99.90
60353;DHT22;46196;52.970;6.954;2023-09-07T05:12:03;17.10;99.90
60353;DHT22;46196;52.970;6.954;2023-09-07T05:24:14;16.80;99.90
60353;DHT22;46196;52.970;6.954;2023-09-07T05:26:43;16.70;99.90
60353;DHT22;46196;52.970;6.954;2023-09-07T05:29:10;16.70;99.90
60353;DHT22;46196;52.970;6.954;2023-09-07T05:31:36;16.80;99.90
60353;DHT22;46196;52.970;6.954;2023-09-07T05:36:29;16.40;99.90
60353;DHT22;46196;52.970;6.954;2023-09-07T05:38:55;16.70;99.90
60353;DHT22;46196;52.970;6.954;2023-09-07T05:41:21;17.20;99.90
60353;DHT22;46196;52.970;6.954;2023-09-07T05:43:47;17.40;99.90
60353;DHT22;46196;52.970;6.954;2023-09-07T05:51:05;16.60;99.90
60353;DHT22;46196;52.970;6.954;2023-09-07T05:53:31;16.10;99.90
60353;DHT22;46196;52.970;6.954;2023-09-07T05:55:57;18.80;99.90
60353;DHT22;46196;52.970;6.954;2023-09-07T05:58:23;18.50;99.90
60353;DHT22;46196;52.970;6.954;2023-09-07T06:03:15;16.50;99.90
60353;DHT22;46196;52.970;6.954;2023-09-07T06:08:06;18.80;99.90
60353;DHT22;46196;52.970;6.954;2023-09-07T06:15:26;17.30;99.90
60353;DHT22;46196;52.970;6.954;2023-09-07T06:17:53;17.30;99.90
60353;DHT22;46196;52.970;6.954;2023-09-07T06:20:19;17.40;99.90
60353;DHT22;46196;52.970;6.954;2023-09-07T06:25:12;18.00;99.90
60353;DHT22;46196;52.970;6.954;2023-09-07T06:27:37;17.50;99.90
60353;DHT22;46196;52.970;6.954;2023-09-07T06:30:06;17.80;99.90
60353;DHT22;46196;52.970;6.954;2023-09-07T06:32:32;17.60;99.90
60353;DHT22;46196;52.970;6.954;2023-09-07T06:37:24;17.80;99.90
60353;DHT22;46196;52.970;6.954;2023-09-07T06:39:51;18.00;99.90
60353;DHT22;46196;52.970;6.954;2023-09-07T06:47:10;18.00;99.90
60353;DHT22;46196;52.970;6.954;2023-09-07T06:49:38;18.10;99.90
60353;DHT22;46196;52.970;6.954;2023-09-07T06:52:03;18.10;99.90
60353;DHT22;46196;52.970;6.954;2023-09-07T06:54:30;18.20;99.90
60353;DHT22;46196;52.970;6.954;2023-09-07T06:56:59;18.30;99.90
60353;DHT22;46196;52.970;6.954;2023-09-07T06:59:24;18.30;99.90
60353;DHT22;46196;52.970;6.954;2023-09-07T07:06:42;18.50;99.90
60353;DHT22;46196;52.970;6.954;2023-09-07T07:09:08;18.60;99.90
60353;DHT22;46196;52.970;6.954;2023-09-07T07:11:34;18.80;99.90
60353;DHT22;46196;52.970;6.954;2023-09-07T07:16:26;18.90;99.90
60353;DHT22;46196;52.970;6.954;2023-09-07T07:21:18;18.50;99.90
60353;DHT22;46196;52.970;6.954;2023-09-07T07:23:44;19.10;99.90
60353;DHT22;46196;52.970;6.954;2023-09-07T07:26:10;19.20;99.90
60353;DHT22;46196;52.970;6.954;2023-09-07T07:28:35;19.30;99.90
60353;DHT22;46196;52.970;6.954;2023-09-07T07:31:07;19.30;99.90
60353;DHT22;46196;52.970;6.954;2023-09-07T07:33:36;19.50;99.90
60353;DHT22;46196;52.970;6.954;2023-09-07T07:36:04;20.10;99.90
60353;DHT22;46196;52.970;6.954;2023-09-07T07:38:30;20.70;99.90
60353;DHT22;46196;52.970;6.954;2023-09-07T07:43:26;19.90;99.90
60353;DHT22;46196;52.970;6.954;2023-09-07T07:45:54;20.10;99.90
60353;DHT22;46196;52.970;6.954;2023-09-07T07:50:45;21.00;99.90
60353;DHT22;46196;52.970;6.954;2023-09-07T07:53:11;22.40;99.90
60353;DHT22;46196;52.970;6.954;2023-09-07T07:55:37;22.10;99.90
60353;DHT22;46196;52.970;6.954;2023-09-07T07:58:08;24.30;99.90
60353;DHT22;46196;52.970;6.954;2023-09-07T08:00:38;24.90;99.90
60353;DHT22;46196;52.970;6.954;2023-09-07T08:03:05;25.40;99.90
60353;DHT22;46196;52.970;6.954;2023-09-07T08:05:35;26.90;99.90
60353;DHT22;46196;52.970;6.954;2023-09-07T08:08:01;27.60;99.90
60353;DHT22;46196;52.970;6.954;2023-09-07T08:10:28;28.20;99.90
60353;DHT22;46196;52.970;6.954;2023-09-07T08:12:56;28.40;99.90
60353;DHT22;46196;52.970;6.954;2023-09-07T08:15:23;29.20;94.80
60353;DHT22;46196;52.970;6.954;2023-09-07T08:17:51;29.30;97.40
60353;DHT22;46196;52.970;6.954;2023-09-07T08:20:16;29.80;97.20
60353;DHT22;46196;52.970;6.954;2023-09-07T08:22:43;30.10;94.90
60353;DHT22;46196;52.970;6.954;2023-09-07T08:25:10;30.50;94.60
60353;DHT22;46196;52.970;6.954;2023-09-07T08:27:35;31.50;90.60
60353;DHT22;46196;52.970;6.954;2023-09-07T08:30:01;31.20;92.50
60353;DHT22;46196;52.970;6.954;2023-09-07T08:32:27;31.50;91.20
60353;DHT22;46196;52.970;6.954;2023-09-07T08:34:53;31.50;82.90
60353;DHT22;46196;52.970;6.954;2023-09-07T08:37:22;31.90;86.10
60353;DHT22;46196;52.970;6.954;2023-09-07T08:39:48;31.50;82.70
60353;DHT22;46196;52.970;6.954;2023-09-07T08:42:14;32.00;83.30
60353;DHT22;46196;52.970;6.954;2023-09-07T08:44:41;32.30;82.00
60353;DHT22;46196;52.970;6.954;2023-09-07T08:47:12;32.30;84.40
60353;DHT22;46196;52.970;6.954;2023-09-07T08:49:41;32.70;84.00
60353;DHT22;46196;52.970;6.954;2023-09-07T08:52:09;33.50;79.50
60353;DHT22;46196;52.970;6.954;2023-09-07T08:54:36;32.60;76.30
60353;DHT22;46196;52.970;6.954;2023-09-07T08:57:03;33.00;77.60
60353;DHT22;46196;52.970;6.954;2023-09-07T08:59:34;32.90;80.00
60353;DHT22;46196;52.970;6.954;2023-09-07T09:02:01;33.00;78.70
60353;DHT22;46196;52.970;6.954;2023-09-07T09:04:30;33.20;79.00
60353;DHT22;46196;52.970;6.954;2023-09-07T09:06:56;33.20;77.60
60353;DHT22;46196;52.970;6.954;2023-09-07T09:09:25;33.10;76.70
60353;DHT22;46196;52.970;6.954;2023-09-07T09:11:51;33.40;76.90
60353;DHT22;46196;52.970;6.954;2023-09-07T09:14:17;33.50;75.50
60353;DHT22;46196;52.970;6.954;2023-09-07T09:16:50;33.90;74.20
60353;DHT22;46196;52.970;6.954;2023-09-07T09:19:16;33.60;74.80
60353;DHT22;46196;52.970;6.954;2023-09-07T09:21:44;33.50;70.80
60353;DHT22;46196;52.970;6.954;2023-09-07T09:24:11;33.50;71.40
60353;DHT22;46196;52.970;6.954;2023-09-07T09:26:37;33.50;71.90
60353;DHT22;46196;52.970;6.954;2023-09-07T09:29:03;33.50;73.00
60353;DHT22;46196;52.970;6.954;2023-09-07T09:31:30;33.70;73.60
60353;DHT22;46196;52.970;6.954;2023-09-07T09:33:57;33.70;71.90
60353;DHT22;46196;52.970;6.954;2023-09-07T09:36:33;33.60;71.70
60353;DHT22;46196;52.970;6.954;2023-09-07T09:39:01;32.90;70.50
60353;DHT22;46196;52.970;6.954;2023-09-07T09:41:27;33.30;71.40
60353;DHT22;46196;52.970;6.954;2023-09-07T09:43:53;33.00;68.60
60353;DHT22;46196;52.970;6.954;2023-09-07T09:46:22;33.30;69.30
60353;DHT22;46196;52.970;6.954;2023-09-07T09:48:48;32.70;66.40
60353;DHT22;46196;52.970;6.954;2023-09-07T09:51:15;33.70;67.90
60353;DHT22;46196;52.970;6.954;2023-09-07T09:53:42;32.90;68.70
60353;DHT22;46196;52.970;6.954;2023-09-07T09:56:08;32.50;68.10
60353;DHT22;46196;52.970;6.954;2023-09-07T09:58:33;32.40;68.30
60353;DHT22;46196;52.970;6.954;2023-09-07T10:01:01;31.70;68.20
60353;DHT22;46196;52.970;6.954;2023-09-07T10:03:40;31.40;68.70
60353;DHT22;46196;52.970;6.954;2023-09-07T10:06:24;30.60;68.80
60353;DHT22;46196;52.970;6.954;2023-09-07T10:09:04;30.30;69.30
60353;DHT22;46196;52.970;6.954;2023-09-07T10:11:35;30.90;70.30
60353;DHT22;46196;52.970;6.954;2023-09-07T10:14:04;30.70;70.30
60353;DHT22;46196;52.970;6.954;2023-09-07T10:16:46;30.50;70.40
60353;DHT22;46196;52.970;6.954;2023-09-07T10:19:22;30.50;71.00
60353;DHT22;46196;52.970;6.954;2023-09-07T10:21:48;29.70;69.10
60353;DHT22;46196;52.970;6.954;2023-09-07T10:24:27;30.30;70.20
60353;DHT22;46196;52.970;6.954;2023-09-07T10:27:07;30.60;68.60
60353;DHT22;46196;52.970;6.954;2023-09-07T10:32:09;30.50;68.70
60353;DHT22;46196;52.970;6.954;2023-09-07T10:34:38;30.90;68.40
60353;DHT22;46196;52.970;6.954;2023-09-07T10:37:05;30.70;67.80
60353;DHT22;46196;52.970;6.954;2023-09-07T10:39:33;30.60;69.20
60353;DHT22;46196;52.970;6.954;2023-09-07T10:41:59;31.50;67.40
60353;DHT22;46196;52.970;6.954;2023-09-07T10:44:28;30.80;67.50
60353;DHT22;46196;52.970;6.954;2023-09-07T10:46:55;30.90;67.80
60353;DHT22;46196;52.970;6.954;2023-09-07T10:49:22;31.00;65.40
60353;DHT22;46196;52.970;6.954;2023-09-07T10:51:48;31.70;66.90
60353;DHT22;46196;52.970;6.954;2023-09-07T10:54:21;31.10;67.20
60353;DHT22;46196;52.970;6.954;2023-09-07T10:56:48;31.10;66.10
60353;DHT22;46196;52.970;6.954;2023-09-07T10:59:14;31.10;66.60
60353;DHT22;46196;52.970;6.954;2023-09-07T11:01:40;30.90;65.10
60353;DHT22;46196;52.970;6.954;2023-09-07T11:04:06;31.20;66.10
60353;DHT22;46196;52.970;6.954;2023-09-07T11:06:34;30.40;64.80
60353;DHT22;46196;52.970;6.954;2023-09-07T11:09:02;31.30;65.90
60353;DHT22;46196;52.970;6.954;2023-09-07T11:11:31;31.40;65.70
60353;DHT22;46196;52.970;6.954;2023-09-07T11:13:58;31.20;66.20
60353;DHT22;46196;52.970;6.954;2023-09-07T11:16:25;31.20;65.80
60353;DHT22;46196;52.970;6.954;2023-09-07T11:18:54;30.90;65.00
60353;DHT22;46196;52.970;6.954;2023-09-07T11:21:23;30.70;64.80
60353;DHT22;46196;52.970;6.954;2023-09-07T11:23:50;31.20;65.80
60353;DHT22;46196;52.970;6.954;2023-09-07T11:26:15;31.60;66.50
60353;DHT22;46196;52.970;6.954;2023-09-07T11:28:47;31.30;66.60
60353;DHT22;46196;52.970;6.954;2023-09-07T11:31:13;31.40;65.80
60353;DHT22;46196;52.970;6.954;2023-09-07T11:33:41;31.40;65.20
60353;DHT22;46196;52.970;6.954;2023-09-07T11:36:06;31.20;64.80
60353;DHT22;46196;52.970;6.954;2023-09-07T11:38:36;31.30;65.00
60353;DHT22;46196;52.970;6.954;2023-09-07T11:41:03;31.40;66.00
60353;DHT22;46196;52.970;6.954;2023-09-07T11:43:29;31.40;65.30
60353;DHT22;46196;52.970;6.954;2023-09-07T11:45:55;31.50;65.40
60353;DHT22;46196;52.970;6.954;2023-09-07T11:48:20;31.50;66.00
60353;DHT22;46196;52.970;6.954;2023-09-07T11:50:46;31.50;65.80
60353;DHT22;46196;52.970;6.954;2023-09-07T11:53:12;31.60;66.00
60353;DHT22;46196;52.970;6.954;2023-09-07T11:55:38;31.70;65.90
60353;DHT22;46196;52.970;6.954;2023-09-07T11:58:05;31.90;66.10
60353;DHT22;46196;52.970;6.954;2023-09-07T12:00:31;32.30;65.30
60353;DHT22;46196;52.970;6.954;2023-09-07T12:02:57;31.90;64.90
60353;DHT22;46196;52.970;6.954;2023-09-07T12:05:23;31.50;64.60
60353;DHT22;46196;52.970;6.954;2023-09-07T12:07:50;32.00;65.70
60353;DHT22;46196;52.970;6.954;2023-09-07T12:10:15;32.00;65.20
60353;DHT22;46196;52.970;6.954;2023-09-07T12:12:41;32.00;65.20
60353;DHT22;46196;52.970;6.954;2023-09-07T12:15:08;32.10;64.30
60353;DHT22;46196;52.970;6.954;2023-09-07T12:17:34;32.40;63.70
60353;DHT22;46196;52.970;6.954;2023-09-07T12:20:01;32.00;62.60
60353;DHT22;46196;52.970;6.954;2023-09-07T12:22:27;32.10;63.60
60353;DHT22;46196;52.970;6.954;2023-09-07T12:24:53;31.80;63.40
60353;DHT22;46196;52.970;6.954;2023-09-07T12:27:18;32.30;63.70
60353;DHT22;46196;52.970;6.954;2023-09-07T12:29:44;32.40;63.10
60353;DHT22;46196;52.970;6.954;2023-09-07T12:32:10;32.40;64.00
60353;DHT22;46196;52.970;6.954;2023-09-07T12:34:36;32.60;64.70
60353;DHT22;46196;52.970;6.954;2023-09-07T12:37:02;32.60;64.90
60353;DHT22;46196;52.970;6.954;2023-09-07T12:39:31;32.70;64.90
60353;DHT22;46196;52.970;6.954;2023-09-07T12:41:57;32.80;63.40
60353;DHT22;46196;52.970;6.954;2023-09-07T12:44:23;32.80;63.00
60353;DHT22;46196;52.970;6.954;2023-09-07T12:46:48;32.80;61.90
60353;DHT22;46196;52.970;6.954;2023-09-07T12:49:15;32.80;62.30
60353;DHT22;46196;52.970;6.954;2023-09-07T12:51:41;32.40;60.70
60353;DHT22;46196;52.970;6.954;2023-09-07T12:54:07;32.90;62.60
60353;DHT22;46196;52.970;6.954;2023-09-07T12:56:33;32.80;62.10
60353;DHT22;46196;52.970;6.954;2023-09-07T12:58:59;32.30;60.60
60353;DHT22;46196;52.970;6.954;2023-09-07T13:01:26;32.50;61.10
60353;DHT22;46196;52.970;6.954;2023-09-07T13:03:51;32.70;62.00
60353;DHT22;46196;52.970;6.954;2023-09-07T13:06:17;32.80;62.60
60353;DHT22;46196;52.970;6.954;2023-09-07T13:08:46;32.80;63.10
60353;DHT22;46196;52.970;6.954;2023-09-07T13:11:12;32.80;62.00
60353;DHT22;46196;52.970;6.954;2023-09-07T13:13:38;32.90;63.00
60353;DHT22;46196;52.970;6.954;2023-09-07T13:16:04;33.30;61.90
60353;DHT22;46196;52.970;6.954;2023-09-07T13:18:30;33.00;62.40
60353;DHT22;46196;52.970;6.954;2023-09-07T13:20:57;33.00;59.90
60353;DHT22;46196;52.970;6.954;2023-09-07T13:23:28;32.80;59.30
60353;DHT22;46196;52.970;6.954;2023-09-07T13:25:55;33.00;60.10
60353;DHT22;46196;52.970;6.954;2023-09-07T13:28:21;33.00;60.00
60353;DHT22;46196;52.970;6.954;2023-09-07T13:30:47;34.00;61.00
60353;DHT22;46196;52.970;6.954;2023-09-07T13:33:13;33.40;60.10
60353;DHT22;46196;52.970;6.954;2023-09-07T13:35:39;33.20;60.50
60353;DHT22;46196;52.970;6.954;2023-09-07T13:38:06;33.30;60.40
60353;DHT22;46196;52.970;6.954;2023-09-07T13:40:31;33.40;59.10
60353;DHT22;46196;52.970;6.954;2023-09-07T13:42:57;33.50;59.90
60353;DHT22;46196;52.970;6.954;2023-09-07T13:45:23;33.60;59.60
60353;DHT22;46196;52.970;6.954;2023-09-07T13:47:49;33.60;60.40
60353;DHT22;46196;52.970;6.954;2023-09-07T13:50:15;33.70;60.40
60353;DHT22;46196;52.970;6.954;2023-09-07T13:52:40;33.80;60.10
60353;DHT22;46196;52.970;6.954;2023-09-07T13:55:06;33.90;60.60
60353;DHT22;46196;52.970;6.954;2023-09-07T13:57:33;33.90;59.60
60353;DHT22;46196;52.970;6.954;2023-09-07T14:00:03;33.90;59.20
60353;DHT22;46196;52.970;6.954;2023-09-07T14:02:31;34.20;58.60
60353;DHT22;46196;52.970;6.954;2023-09-07T14:04:58;33.80;59.20
60353;DHT22;46196;52.970;6.954;2023-09-07T14:07:24;33.60;59.50
60353;DHT22;46196;52.970;6.954;2023-09-07T14:09:54;33.70;59.20
60353;DHT22;46196;52.970;6.954;2023-09-07T14:12:20;33.70;59.50
60353;DHT22;46196;52.970;6.954;2023-09-07T14:14:47;33.80;59.70
60353;DHT22;46196;52.970;6.954;2023-09-07T14:17:13;32.90;56.20
60353;DHT22;46196;52.970;6.954;2023-09-07T14:19:39;33.60;58.10
60353;DHT22;46196;52.970;6.954;2023-09-07T14:22:05;33.60;57.70
60353;DHT22;46196;52.970;6.954;2023-09-07T14:24:36;33.60;57.80
60353;DHT22;46196;52.970;6.954;2023-09-07T14:27:02;34.60;57.60
60353;DHT22;46196;52.970;6.954;2023-09-07T14:29:28;32.30;56.90
60353;DHT22;46196;52.970;6.954;2023-09-07T14:31:54;33.40;57.40
60353;DHT22;46196;52.970;6.954;2023-09-07T14:34:20;33.30;56.60
60353;DHT22;46196;52.970;6.954;2023-09-07T14:36:46;33.20;56.90
60353;DHT22;46196;52.970;6.954;2023-09-07T14:39:12;33.10;57.30
60353;DHT22;46196;52.970;6.954;2023-09-07T14:41:38;33.10;56.80
60353;DHT22;46196;52.970;6.954;2023-09-07T14:44:05;33.10;57.80
60353;DHT22;46196;52.970;6.954;2023-09-07T14:46:32;33.10;58.00
60353;DHT22;46196;52.970;6.954;2023-09-07T14:48:58;33.20;58.50
60353;DHT22;46196;52.970;6.954;2023-09-07T14:51:23;33.30;58.20
60353;DHT22;46196;52.970;6.954;2023-09-07T14:53:49;33.30;58.90
60353;DHT22;46196;52.970;6.954;2023-09-07T14:56:15;33.30;59.20
60353;DHT22;46196;52.970;6.954;2023-09-07T14:58:41;32.60;59.50
60353;DHT22;46196;52.970;6.954;2023-09-07T15:01:06;33.30;59.70
60353;DHT22;46196;52.970;6.954;2023-09-07T15:03:33;33.10;58.10
60353;DHT22;46196;52.970;6.954;2023-09-07T15:05:58;33.10;58.80
60353;DHT22;46196;52.970;6.954;2023-09-07T15:08:24;33.10;58.70
60353;DHT22;46196;52.970;6.954;2023-09-07T15:10:50;32.90;59.10
60353;DHT22;46196;52.970;6.954;2023-09-07T15:13:16;32.90;59.40
60353;DHT22;46196;52.970;6.954;2023-09-07T15:15:42;32.90;60.00
60353;DHT22;46196;52.970;6.954;2023-09-07T15:18:08;33.00;60.50
60353;DHT22;46196;52.970;6.954;2023-09-07T15:20:35;32.80;60.00
60353;DHT22;46196;52.970;6.954;2023-09-07T15:23:01;32.90;60.00
60353;DHT22;46196;52.970;6.954;2023-09-07T15:25:28;32.60;59.90
60353;DHT22;46196;52.970;6.954;2023-09-07T15:27:54;32.90;60.30
60353;DHT22;46196;52.970;6.954;2023-09-07T15:30:21;31.80;59.00
60353;DHT22;46196;52.970;6.954;2023-09-07T15:32:48;32.90;60.60
60353;DHT22;46196;52.970;6.954;2023-09-07T15:35:14;32.90;60.00
60353;DHT22;46196;52.970;6.954;2023-09-07T15:37:39;33.10;59.30
60353;DHT22;46196;52.970;6.954;2023-09-07T15:40:08;33.60;60.20
60353;DHT22;46196;52.970;6.954;2023-09-07T15:42:33;32.80;60.10
60353;DHT22;46196;52.970;6.954;2023-09-07T15:44:59;32.80;59.80
60353;DHT22;46196;52.970;6.954;2023-09-07T15:47:25;32.70;60.80
60353;DHT22;46196;52.970;6.954;2023-09-07T15:49:52;32.70;60.90
60353;DHT22;46196;52.970;6.954;2023-09-07T15:52:19;32.90;59.80
60353;DHT22;46196;52.970;6.954;2023-09-07T15:54:45;32.10;60.20
60353;DHT22;46196;52.970;6.954;2023-09-07T15:57:11;31.90;59.90
60353;DHT22;46196;52.970;6.954;2023-09-07T15:59:37;32.50;60.80
60353;DHT22;46196;52.970;6.954;2023-09-07T16:02:03;32.40;60.80
60353;DHT22;46196;52.970;6.954;2023-09-07T16:04:28;32.20;60.50
60353;DHT22;46196;52.970;6.954;2023-09-07T16:06:54;32.10;60.60
60353;DHT22;46196;52.970;6.954;2023-09-07T16:09:20;31.10;60.40
60353;DHT22;46196;52.970;6.954;2023-09-07T16:11:46;32.10;61.60
60353;DHT22;46196;52.970;6.954;2023-09-07T16:14:12;32.10;61.60
60353;DHT22;46196;52.970;6.954;2023-09-07T16:16:37;32.00;61.50
60353;DHT22;46196;52.970;6.954;2023-09-07T16:19:04;31.90;61.60
60353;DHT22;46196;52.970;6.954;2023-09-07T16:21:30;31.90;61.20
60353;DHT22;46196;52.970;6.954;2023-09-07T16:23:57;31.10;61.60
60353;DHT22;46196;52.970;6.954;2023-09-07T16:26:22;31.90;62.40
60353;DHT22;46196;52.970;6.954;2023-09-07T16:28:48;31.90;62.50
60353;DHT22;46196;52.970;6.954;2023-09-07T16:31:15;31.90;62.30
60353;DHT22;46196;52.970;6.954;2023-09-07T16:33:41;31.80;62.70
60353;DHT22;46196;52.970;6.954;2023-09-07T16:36:07;31.70;63.30
60353;DHT22;46196;52.970;6.954;2023-09-07T16:38:33;31.70;63.80
60353;DHT22;46196;52.970;6.954;2023-09-07T16:41:06;31.40;64.20
60353;DHT22;46196;52.970;6.954;2023-09-07T16:43:32;31.30;64.90
60353;DHT22;46196;52.970;6.954;2023-09-07T16:46:03;31.40;65.00
60353;DHT22;46196;52.970;6.954;2023-09-07T16:48:32;31.60;65.70
60353;DHT22;46196;52.970;6.954;2023-09-07T16:50:58;31.20;65.80
60353;DHT22;46196;52.970;6.954;2023-09-07T16:53:24;31.20;66.40
60353;DHT22;46196;52.970;6.954;2023-09-07T16:55:50;31.10;66.10
60353;DHT22;46196;52.970;6.954;2023-09-07T16:58:16;31.00;66.70
60353;DHT22;46196;52.970;6.954;2023-09-07T17:00:41;30.90;66.80
60353;DHT22;46196;52.970;6.954;2023-09-07T17:03:07;30.70;67.00
60353;DHT22;46196;52.970;6.954;2023-09-07T17:05:34;30.20;67.10
60353;DHT22;46196;52.970;6.954;2023-09-07T17:08:01;30.10;67.50
60353;DHT22;46196;52.970;6.954;2023-09-07T17:10:27;30.30;67.60
60353;DHT22;46196;52.970;6.954;2023-09-07T17:12:53;30.20;68.60
60353;DHT22;46196;52.970;6.954;2023-09-07T17:15:19;30.20;68.50
60353;DHT22;46196;52.970;6.954;2023-09-07T17:17:51;30.10;68.60
60353;DHT22;46196;52.970;6.954;2023-09-07T17:20:17;30.20;69.10
60353;DHT22;46196;52.970;6.954;2023-09-07T17:22:43;29.80;69.50
60353;DHT22;46196;52.970;6.954;2023-09-07T17:25:15;29.80;69.80
60353;DHT22;46196;52.970;6.954;2023-09-07T17:27:43;29.40;70.00
60353;DHT22;46196;52.970;6.954;2023-09-07T17:30:08;29.40;69.80
60353;DHT22;46196;52.970;6.954;2023-09-07T17:32:36;29.10;70.90
60353;DHT22;46196;52.970;6.954;2023-09-07T17:35:03;29.20;70.70
60353;DHT22;46196;52.970;6.954;2023-09-07T17:37:29;29.00;71.00
60353;DHT22;46196;52.970;6.954;2023-09-07T17:39:55;28.40;72.50
60353;DHT22;46196;52.970;6.954;2023-09-07T17:42:22;28.70;72.10
60353;DHT22;46196;52.970;6.954;2023-09-07T17:44:49;28.90;74.00
60353;DHT22;46196;52.970;6.954;2023-09-07T17:47:15;28.10;74.10
60353;DHT22;46196;52.970;6.954;2023-09-07T17:49:41;28.20;74.70
60353;DHT22;46196;52.970;6.954;2023-09-07T17:52:07;27.90;74.00
60353;DHT22;46196;52.970;6.954;2023-09-07T17:54:33;27.50;75.30
60353;DHT22;46196;52.970;6.954;2023-09-07T17:56:59;27.60;74.90